Time;durP1;ratioP1;P1;durP2;ratioP2;P2;SDS_P1;SDS_P2;PMS_P1;PMS_P2;Temp;Humidity;BMP_temperature;BMP_pressure;BME280_temperature;BME280_humidity;BME280_pressure;Samples;Min_cycle;Max_cycle;Signal;HPM_P1;HPM_P2
2022/07/18 00:05:10;;;;;;;1.50;1.10;;;;;;;;;;12649439;28;20035;-76
2022/07/18 00:11:11;;;;;;;1.55;1.45;;;;;;;;;;12644622;28;20376;-76
2022/07/18 00:17:13;;;;;;;1.30;1.20;;;;;;;;;;12644677;28;20040;-77
2022/07/18 00:23:15;;;;;;;1.55;1.45;;;;;;;;;;12627806;28;20036;-75
2022/07/18 00:29:16;;;;;;;1.77;1.58;;;;;;;;;;12631385;28;20039;-75
2022/07/18 00:35:18;;;;;;;1.65;1.55;;;;;;;;;;12643040;28;20039;-80
2022/07/18 00:41:20;;;;;;;2.72;1.75;;;;;;;;;;12624378;28;20060;-80
2022/07/18 00:47:22;;;;;;;2.20;2.00;;;;;;;;;;12628389;28;20044;-80
2022/07/18 00:53:24;;;;;;;1.77;1.67;;;;;;;;;;12610592;28;20036;-78
2022/07/18 01:01:42;;;;;;;3.72;2.47;;;;;;;;;;12615188;28;20031;-79
2022/07/18 01:05:48;;;;;;;1.83;1.63;;;;;;;;;;12644887;28;20047;-76
2022/07/18 01:11:50;;;;;;;3.20;2.90;;;;;;;;;;12629194;28;20043;-80
2022/07/18 01:17:51;;;;;;;3.90;3.50;;;;;;;;;;12633181;28;20040;-80
2022/07/18 01:23:53;;;;;;;3.80;3.50;;;;;;;;;;12618401;28;20036;-76
2022/07/18 01:29:55;;;;;;;3.95;3.55;;;;;;;;;;12655942;28;20496;-77
2022/07/18 01:35:59;;;;;;;3.60;3.30;;;;;;;;;;12618926;28;20036;-78
2022/07/18 01:42:06;;;;;;;4.05;3.70;;;;;;;;;;12637056;28;20405;-80
2022/07/18 01:48:08;;;;;;;2.90;2.70;;;;;;;;;;12636796;28;20044;-77
2022/07/18 01:54:09;;;;;;;3.38;3.03;;;;;;;;;;12620652;28;20086;-80
2022/07/18 02:00:12;;;;;;;3.17;2.85;;;;;;;;;;12654098;28;20036;-76
2022/07/18 02:06:14;;;;;;;2.65;2.45;;;;;;;;;;12655905;28;20040;-81
2022/07/18 02:12:15;;;;;;;2.78;2.47;;;;;;;;;;12633258;28;20040;-81
2022/07/18 02:18:17;;;;;;;2.40;2.20;;;;;;;;;;12653430;28;20039;-76
2022/07/18 02:24:19;;;;;;;1.98;1.88;;;;;;;;;;12636368;28;20032;-76
2022/07/18 02:30:21;;;;;;;2.17;1.98;;;;;;;;;;12618589;28;20055;-77
2022/07/18 02:36:23;;;;;;;2.40;2.20;;;;;;;;;;12652801;28;20371;-76
2022/07/18 02:42:25;;;;;;;2.00;1.90;;;;;;;;;;12630606;28;20067;-76
2022/07/18 02:48:26;;;;;;;3.38;2.00;;;;;;;;;;12629991;28;20052;-80
2022/07/18 02:54:29;;;;;;;1.52;1.42;;;;;;;;;;12629597;28;20028;-80
2022/07/18 03:00:31;;;;;;;1.95;1.40;;;;;;;;;;12636749;28;20043;-80
2022/07/18 03:06:32;;;;;;;1.27;1.17;;;;;;;;;;12614713;28;20032;-80
2022/07/18 03:12:34;;;;;;;1.30;1.20;;;;;;;;;;12650336;28;20042;-79
2022/07/18 03:18:36;;;;;;;1.67;1.58;;;;;;;;;;12649421;28;20050;-75
2022/07/18 03:24:38;;;;;;;1.48;1.38;;;;;;;;;;12646782;28;20032;-76
2022/07/18 03:30:39;;;;;;;1.50;1.40;;;;;;;;;;12648177;28;20039;-80
2022/07/18 03:37:00;;;;;;;1.45;1.33;;;;;;;;;;12648814;28;20392;-79
2022/07/18 03:43:01;;;;;;;1.30;1.20;;;;;;;;;;12645179;28;20052;-76
2022/07/18 03:49:03;;;;;;;1.50;1.40;;;;;;;;;;12647243;28;20044;-77
2022/07/18 03:55:05;;;;;;;2.58;1.60;;;;;;;;;;12644813;28;20495;-75
2022/07/18 04:01:07;;;;;;;1.50;1.40;;;;;;;;;;12626781;28;20364;-79
2022/07/18 04:07:11;;;;;;;2.08;1.40;;;;;;;;;;12639409;28;20387;-80
2022/07/18 04:13:13;;;;;;;1.67;1.48;;;;;;;;;;12609775;28;20035;-80
2022/07/18 04:19:16;;;;;;;1.45;1.35;;;;;;;;;;12627523;28;20032;-76
2022/07/18 04:25:19;;;;;;;0.90;0.90;;;;;;;;;;12645546;28;20043;-76
2022/07/18 04:31:21;;;;;;;1.50;1.40;;;;;;;;;;12625136;28;20044;-81
2022/07/18 04:37:25;;;;;;;1.27;1.17;;;;;;;;;;12625466;28;20043;-77
2022/07/18 04:43:27;;;;;;;;;;;;;;;;;;12626593;28;20055;-76
2022/07/18 04:49:28;;;;;;;1.00;0.90;;;;;;;;;;12634731;28;20291;-80
2022/07/18 04:55:30;;;;;;;1.15;0.93;;;;;;;;;;12637037;28;20263;-76
2022/07/18 05:01:32;;;;;;;;;;;;;;;;;;12638172;28;20051;-77
2022/07/18 05:07:33;;;;;;;0.85;0.85;;;;;;;;;;12652348;28;20395;-82
2022/07/18 05:13:35;;;;;;;1.00;0.80;;;;;;;;;;12619287;28;20384;-80
2022/07/18 05:19:37;;;;;;;1.83;1.15;;;;;;;;;;12653210;28;20607;-77
2022/07/18 05:25:39;;;;;;;1.27;1.05;;;;;;;;;;12652445;28;20039;-76
2022/07/18 05:31:41;;;;;;;1.42;1.17;;;;;;;;;;12655500;28;20063;-76
2022/07/18 05:37:43;;;;;;;0.95;0.88;;;;;;;;;;12632692;28;20036;-80
2022/07/18 05:43:45;;;;;;;1.10;0.93;;;;;;;;;;12621344;28;20056;-80
2022/07/18 05:49:47;;;;;;;1.45;1.10;;;;;;;;;;12650388;28;20592;-78
2022/07/18 05:55:49;;;;;;;1.00;0.90;;;;;;;;;;12651097;28;20032;-76
2022/07/18 06:01:50;;;;;;;1.15;0.82;;;;;;;;;;12651163;28;20039;-80
2022/07/18 06:07:53;;;;;;;5.63;1.10;;;;;;;;;;12650755;28;20408;-77
2022/07/18 06:13:54;;;;;;;1.10;1.00;;;;;;;;;;12613683;28;20028;-76
2022/07/18 06:19:56;;;;;;;0.82;0.82;;;;;;;;;;12631117;28;20043;-76
2022/07/18 06:25:59;;;;;;;1.23;1.02;;;;;;;;;;12648242;28;20036;-80
2022/07/18 06:32:01;;;;;;;1.17;1.10;;;;;;;;;;12630388;28;20044;-80
2022/07/18 06:38:03;;;;;;;0.70;0.70;;;;;;;;;;12630091;28;20036;-77
2022/07/18 06:44:05;;;;;;;1.50;1.02;;;;;;;;;;12630320;28;20055;-76
2022/07/18 06:50:07;;;;;;;1.50;1.00;;;;;;;;;;12646681;28;20036;-76
2022/07/18 06:56:08;;;;;;;2.35;1.10;;;;;;;;;;12649846;28;20024;-76
2022/07/18 07:02:11;;;;;;;0.70;0.52;;;;;;;;;;12646085;28;20035;-76
2022/07/18 07:08:13;;;;;;;2.83;0.90;;;;;;;;;;12646962;28;20047;-76
2022/07/18 07:14:14;;;;;;;1.05;0.75;;;;;;;;;;12647197;28;20507;-80
2022/07/18 07:20:20;;;;;;;0.90;0.60;;;;;;;;;;12613222;28;20047;-80
2022/07/18 07:26:22;;;;;;;1.75;1.38;;;;;;;;;;12610346;28;20024;-77
2022/07/18 07:32:24;;;;;;;1.23;1.05;;;;;;;;;;12644615;28;20048;-77
2022/07/18 07:38:28;;;;;;;1.80;1.55;;;;;;;;;;12610945;28;20028;-77
2022/07/18 07:44:37;;;;;;;4.10;1.92;;;;;;;;;;12585907;28;20221;-76
2022/07/18 07:50:39;;;;;;;1.73;1.40;;;;;;;;;;12586135;28;20388;-80
2022/07/18 07:56:41;;;;;;;2.05;1.35;;;;;;;;;;12590341;28;20032;-77
2022/07/18 08:02:55;;;;;;;2.03;1.42;;;;;;;;;;12586770;28;20047;-77
2022/07/18 08:08:58;;;;;;;3.35;2.03;;;;;;;;;;12587556;28;20040;-76
2022/07/18 08:14:59;;;;;;;1.98;1.50;;;;;;;;;;12587015;28;20032;-76
2022/07/18 08:21:01;;;;;;;3.03;1.60;;;;;;;;;;12585054;28;20041;-79
2022/07/18 08:27:03;;;;;;;1.27;1.17;;;;;;;;;;12585012;28;20487;-80
2022/07/18 08:33:05;;;;;;;1.83;1.73;;;;;;;;;;12587136;28;20396;-76
2022/07/18 08:39:07;;;;;;;1.83;1.42;;;;;;;;;;12585588;28;20052;-80
2022/07/18 08:45:09;;;;;;;1.30;1.20;;;;;;;;;;12570742;28;20036;-76
2022/07/18 08:51:12;;;;;;;1.83;1.50;;;;;;;;;;12578556;28;20036;-76
2022/07/18 08:57:13;;;;;;;2.38;1.80;;;;;;;;;;12552103;28;20040;-79
2022/07/18 09:03:15;;;;;;;1.77;1.63;;;;;;;;;;12550562;28;20052;-80
2022/07/18 09:09:18;;;;;;;1.42;1.30;;;;;;;;;;12551481;28;20473;-80
2022/07/18 09:15:19;;;;;;;1.88;1.40;;;;;;;;;;12533520;28;20041;-76
2022/07/18 09:21:22;;;;;;;2.72;1.88;;;;;;;;;;12553567;28;20060;-80
2022/07/18 09:27:24;;;;;;;3.47;1.95;;;;;;;;;;12551930;28;20025;-81
2022/07/18 09:33:26;;;;;;;2.65;1.50;;;;;;;;;;12548827;28;20029;-81
2022/07/18 09:39:29;;;;;;;2.47;1.73;;;;;;;;;;12549347;28;20053;-80
2022/07/18 09:45:36;;;;;;;1.55;1.40;;;;;;;;;;12549466;28;20484;-77
2022/07/18 09:51:37;;;;;;;1.80;1.70;;;;;;;;;;12549254;28;20033;-77
2022/07/18 09:57:40;;;;;;;1.70;1.60;;;;;;;;;;12550485;28;20036;-77
2022/07/18 10:03:42;;;;;;;1.67;1.40;;;;;;;;;;12546034;28;20041;-75
2022/07/18 10:09:44;;;;;;;2.60;1.77;;;;;;;;;;12547643;28;20037;-76
2022/07/18 10:15:47;;;;;;;1.50;1.40;;;;;;;;;;12547050;28;20393;-79
2022/07/18 10:21:49;;;;;;;1.60;1.45;;;;;;;;;;12546218;28;20412;-75
2022/07/18 10:28:07;;;;;;;2.83;1.70;;;;;;;;;;12549903;28;20040;-76
2022/07/18 10:34:09;;;;;;;2.65;2.00;;;;;;;;;;12547383;28;20501;-80
2022/07/18 10:40:29;;;;;;;2.35;1.90;;;;;;;;;;12547243;28;20053;-77
2022/07/18 10:46:50;;;;;;;2.15;1.92;;;;;;;;;;12547507;28;20032;-80
2022/07/18 10:52:56;;;;;;;2.30;2.00;;;;;;;;;;12548898;28;20033;-81
2022/07/18 10:58:58;;;;;;;2.05;1.80;;;;;;;;;;12546415;28;20033;-80
2022/07/18 11:05:00;;;;;;;1.40;1.30;;;;;;;;;;12546212;28;20037;-76
2022/07/18 11:11:02;;;;;;;1.60;1.50;;;;;;;;;;12546717;28;20045;-76
2022/07/18 11:17:05;;;;;;;1.98;1.40;;;;;;;;;;12527265;28;20032;-77
2022/07/18 11:23:20;;;;;;;1.70;1.60;;;;;;;;;;12548820;28;20365;-79
2022/07/18 11:29:23;;;;;;;1.60;1.50;;;;;;;;;;12544457;28;20036;-77
2022/07/18 11:35:25;;;;;;;1.85;1.30;;;;;;;;;;12544177;28;20037;-80
2022/07/18 11:41:27;;;;;;;2.70;1.60;;;;;;;;;;12547825;28;20060;-76
2022/07/18 11:47:29;;;;;;;2.28;1.60;;;;;;;;;;12547423;28;20040;-80
2022/07/18 11:53:31;;;;;;;1.15;0.90;;;;;;;;;;12545562;28;20052;-76
2022/07/18 11:59:41;;;;;;;1.35;1.00;;;;;;;;;;12544422;28;20463;-80
2022/07/18 12:05:50;;;;;;;1.85;1.10;;;;;;;;;;12548915;28;20408;-77
2022/07/18 12:11:52;;;;;;;1.00;0.90;;;;;;;;;;12544533;28;20045;-80
2022/07/18 12:17:53;;;;;;;0.82;0.80;;;;;;;;;;12544459;28;20033;-80
2022/07/18 12:23:55;;;;;;;1.15;1.05;;;;;;;;;;12542303;28;20060;-76
2022/07/18 12:30:06;;;;;;;1.75;0.93;;;;;;;;;;12549341;28;20033;-80
2022/07/18 12:36:09;;;;;;;1.23;1.15;;;;;;;;;;12553491;28;20041;-77
2022/07/18 12:42:27;;;;;;;1.60;1.17;;;;;;;;;;12552498;28;20056;-80
2022/07/18 12:48:29;;;;;;;1.17;1.00;;;;;;;;;;12552679;28;20029;-76
2022/07/18 12:54:31;;;;;;;1.67;0.98;;;;;;;;;;12552509;28;20362;-76
2022/07/18 13:00:33;;;;;;;1.35;1.10;;;;;;;;;;12551933;28;20048;-79
2022/07/18 13:06:35;;;;;;;1.00;0.82;;;;;;;;;;12553979;28;20055;-80
2022/07/18 13:12:36;;;;;;;1.10;1.00;;;;;;;;;;12549741;28;20392;-79
2022/07/18 13:18:38;;;;;;;0.98;0.90;;;;;;;;;;12551424;28;20404;-76
2022/07/18 13:24:41;;;;;;;1.45;1.00;;;;;;;;;;12551726;28;20041;-76
2022/07/18 13:30:43;;;;;;;1.08;0.98;;;;;;;;;;12551179;28;20041;-80
2022/07/18 13:36:45;;;;;;;0.80;0.80;;;;;;;;;;12550298;28;20041;-79
2022/07/18 13:42:47;;;;;;;1.05;0.80;;;;;;;;;;12552122;28;20052;-77
2022/07/18 13:48:49;;;;;;;0.93;0.65;;;;;;;;;;12552254;28;20511;-76
2022/07/18 13:54:54;;;;;;;1.42;1.17;;;;;;;;;;12550638;28;20178;-76
2022/07/18 14:00:56;;;;;;;0.75;0.75;;;;;;;;;;12548021;28;20045;-79
2022/07/18 14:07:17;;;;;;;1.02;1.02;;;;;;;;;;12553083;28;20404;-77
2022/07/18 14:13:18;;;;;;;1.27;1.08;;;;;;;;;;12548056;28;20048;-76
2022/07/18 14:19:20;;;;;;;0.88;0.82;;;;;;;;;;12550008;28;20037;-80
2022/07/18 14:25:22;;;;;;;0.70;0.70;;;;;;;;;;12546613;28;20389;-77
2022/07/18 14:31:23;;;;;;;0.90;0.90;;;;;;;;;;12549812;28;20029;-77
2022/07/18 14:37:25;;;;;;;0.90;0.90;;;;;;;;;;12547951;28;20052;-79
2022/07/18 14:43:27;;;;;;;2.72;1.30;;;;;;;;;;12546752;28;20064;-76
2022/07/18 14:49:29;;;;;;;1.02;0.98;;;;;;;;;;12546460;28;20025;-77
2022/07/18 14:55:32;;;;;;;1.30;1.13;;;;;;;;;;12544701;28;20033;-77
2022/07/18 15:01:34;;;;;;;1.38;0.90;;;;;;;;;;12549737;28;20119;-77
2022/07/18 15:07:55;;;;;;;1.15;0.70;;;;;;;;;;12545437;28;20037;-80
2022/07/18 15:13:57;;;;;;;2.10;0.93;;;;;;;;;;12542191;28;20044;-80
2022/07/18 15:19:59;;;;;;;0.85;0.80;;;;;;;;;;12549277;28;20048;-77
2022/07/18 15:26:01;;;;;;;1.42;1.00;;;;;;;;;;12542604;28;20043;-80
2022/07/18 15:32:07;;;;;;;2.42;1.10;;;;;;;;;;12541362;28;20044;-76
2022/07/18 15:38:09;;;;;;;1.65;0.95;;;;;;;;;;12544783;28;20056;-79
2022/07/18 15:44:11;;;;;;;0.90;0.80;;;;;;;;;;12541352;28;20056;-79
2022/07/18 15:50:14;;;;;;;1.35;0.85;;;;;;;;;;12549785;28;20041;-76
2022/07/18 15:56:16;;;;;;;1.60;0.90;;;;;;;;;;12549685;28;20025;-79
2022/07/18 16:02:17;;;;;;;0.77;0.77;;;;;;;;;;12549820;28;20024;-79
2022/07/18 16:08:19;;;;;;;0.60;0.60;;;;;;;;;;12561947;28;20119;-79
2022/07/18 16:14:21;;;;;;;0.82;0.65;;;;;;;;;;12552442;28;20044;-79
2022/07/18 16:20:22;;;;;;;1.00;0.90;;;;;;;;;;12553630;28;20037;-76
2022/07/18 16:26:24;;;;;;;3.80;0.90;;;;;;;;;;12553999;28;20032;-79
2022/07/18 16:32:26;;;;;;;0.93;0.68;;;;;;;;;;12552205;28;20052;-79
2022/07/18 16:38:28;;;;;;;1.23;0.70;;;;;;;;;;12550277;28;20037;-76
2022/07/18 16:44:29;;;;;;;0.73;0.70;;;;;;;;;;12553062;28;20049;-79
2022/07/18 16:50:31;;;;;;;1.75;0.75;;;;;;;;;;12552595;28;20036;-76
2022/07/18 16:56:33;;;;;;;0.82;0.75;;;;;;;;;;12552529;28;20036;-76
2022/07/18 17:02:35;;;;;;;0.80;0.80;;;;;;;;;;12553109;28;20045;-76
2022/07/18 17:08:37;;;;;;;0.88;0.80;;;;;;;;;;12549923;28;20400;-76
2022/07/18 17:14:39;;;;;;;0.90;0.80;;;;;;;;;;12550799;28;20392;-76
2022/07/18 17:20:40;;;;;;;1.10;0.90;;;;;;;;;;12551796;28;20041;-76
2022/07/18 17:26:42;;;;;;;1.65;0.90;;;;;;;;;;12532326;28;20040;-80
2022/07/18 17:32:44;;;;;;;0.77;0.70;;;;;;;;;;12546944;28;20036;-76
2022/07/18 17:38:46;;;;;;;1.10;1.00;;;;;;;;;;12547170;28;20033;-76
2022/07/18 17:44:48;;;;;;;1.30;0.60;;;;;;;;;;12546770;28;20044;-79
2022/07/18 17:50:50;;;;;;;0.80;0.80;;;;;;;;;;12549697;28;20037;-81
2022/07/18 17:56:52;;;;;;;1.77;0.70;;;;;;;;;;12549205;28;20041;-77
2022/07/18 18:02:53;;;;;;;0.80;0.80;;;;;;;;;;12548519;28;20044;-81
2022/07/18 18:08:55;;;;;;;1.35;0.85;;;;;;;;;;12549271;28;20033;-77
2022/07/18 18:14:57;;;;;;;0.88;0.88;;;;;;;;;;12548198;28;20480;-77
2022/07/18 18:21:00;;;;;;;2.65;1.10;;;;;;;;;;12530642;28;20056;-81
2022/07/18 18:27:01;;;;;;;1.67;1.05;;;;;;;;;;12546823;28;20033;-80
2022/07/18 18:33:04;;;;;;;1.25;1.00;;;;;;;;;;12550591;28;20025;-76
2022/07/18 18:39:05;;;;;;;1.00;0.90;;;;;;;;;;12545856;28;20068;-79
2022/07/18 18:45:09;;;;;;;0.90;0.85;;;;;;;;;;12545713;28;20633;-76
2022/07/18 18:51:10;;;;;;;1.70;1.00;;;;;;;;;;12547752;28;20033;-80
2022/07/18 18:57:12;;;;;;;1.83;1.13;;;;;;;;;;12545794;28;20037;-76
2022/07/18 19:03:14;;;;;;;2.08;0.95;;;;;;;;;;12546491;28;20052;-79
2022/07/18 19:09:16;;;;;;;2.42;1.05;;;;;;;;;;12546209;28;20029;-75
2022/07/18 19:15:18;;;;;;;1.60;0.90;;;;;;;;;;12544527;28;20037;-75
2022/07/18 19:21:20;;;;;;;1.20;1.02;;;;;;;;;;12544483;28;20085;-75
2022/07/18 19:27:22;;;;;;;1.30;1.20;;;;;;;;;;12544507;28;20043;-77
2022/07/18 19:33:24;;;;;;;2.83;1.13;;;;;;;;;;12545144;28;20556;-77
2022/07/18 19:39:26;;;;;;;1.45;1.10;;;;;;;;;;12544387;28;20053;-77
2022/07/18 19:45:28;;;;;;;1.65;0.90;;;;;;;;;;12545353;28;20388;-75
2022/07/18 19:51:30;;;;;;;1.13;1.02;;;;;;;;;;12544295;28;20492;-75
2022/07/18 19:57:31;;;;;;;1.30;1.20;;;;;;;;;;12543326;28;20473;-79
2022/07/18 20:03:33;;;;;;;1.30;1.20;;;;;;;;;;12545769;28;20492;-80
2022/07/18 20:09:35;;;;;;;1.30;1.20;;;;;;;;;;12545209;28;20044;-78
2022/07/18 20:15:37;;;;;;;1.77;1.10;;;;;;;;;;12544979;28;20481;-75
2022/07/18 20:21:41;;;;;;;2.08;1.30;;;;;;;;;;12544025;28;20045;-76
2022/07/18 20:27:45;;;;;;;2.40;1.38;;;;;;;;;;12542616;28;20143;-75
2022/07/18 20:33:48;;;;;;;1.63;1.23;;;;;;;;;;12548209;28;20017;-80
2022/07/18 20:39:51;;;;;;;1.80;1.33;;;;;;;;;;12543776;28;20489;-80
2022/07/18 20:45:54;;;;;;;2.10;1.20;;;;;;;;;;12543183;28;20029;-79
2022/07/18 20:51:58;;;;;;;1.58;1.17;;;;;;;;;;12552040;28;20044;-80
2022/07/18 20:58:04;;;;;;;1.30;1.30;;;;;;;;;;12552640;28;20048;-76
2022/07/18 21:04:06;;;;;;;2.03;1.48;;;;;;;;;;12554884;28;20048;-76
2022/07/18 21:10:10;;;;;;;1.73;1.42;;;;;;;;;;12534300;28;20041;-79
2022/07/18 21:16:13;;;;;;;1.83;1.27;;;;;;;;;;12553736;28;20043;-79
2022/07/18 21:22:16;;;;;;;1.67;1.40;;;;;;;;;;12551787;28;20045;-75
2022/07/18 21:28:19;;;;;;;1.20;1.15;;;;;;;;;;12552928;28;20404;-76
2022/07/18 21:34:21;;;;;;;1.42;1.25;;;;;;;;;;12555612;28;20033;-75
2022/07/18 21:40:24;;;;;;;1.40;1.30;;;;;;;;;;12550301;28;20053;-79
2022/07/18 21:46:27;;;;;;;2.80;1.20;;;;;;;;;;12551373;28;20045;-76
2022/07/18 21:52:30;;;;;;;1.98;1.30;;;;;;;;;;12552723;28;20036;-76
2022/07/18 21:58:32;;;;;;;1.70;1.23;;;;;;;;;;12555229;28;20044;-79
2022/07/18 22:04:34;;;;;;;1.23;1.17;;;;;;;;;;12550031;28;20044;-75
2022/07/18 22:10:37;;;;;;;2.05;1.55;;;;;;;;;;12555527;28;20036;-79
2022/07/18 22:16:40;;;;;;;2.08;1.70;;;;;;;;;;12549165;28;20037;-79
2022/07/18 22:22:45;;;;;;;2.30;1.70;;;;;;;;;;12547618;28;20445;-76
2022/07/18 22:28:47;;;;;;;1.95;1.45;;;;;;;;;;12547647;28;20043;-80
2022/07/18 22:34:49;;;;;;;1.83;1.73;;;;;;;;;;12550870;28;20028;-75
2022/07/18 22:40:51;;;;;;;3.72;1.30;;;;;;;;;;12549354;28;20060;-79
2022/07/18 22:46:54;;;;;;;1.55;1.45;;;;;;;;;;12531942;28;20503;-80
2022/07/18 22:52:55;;;;;;;1.70;1.60;;;;;;;;;;12551255;28;20040;-76
2022/07/18 22:58:57;;;;;;;3.30;1.60;;;;;;;;;;12547453;28;20045;-76
2022/07/18 23:04:59;;;;;;;1.83;1.70;;;;;;;;;;12548452;28;20049;-80
2022/07/18 23:11:03;;;;;;;2.35;2.00;;;;;;;;;;12544898;28;20039;-80
2022/07/18 23:17:05;;;;;;;2.20;2.00;;;;;;;;;;12549222;28;20037;-80
2022/07/18 23:23:07;;;;;;;1.92;1.50;;;;;;;;;;12546255;28;20048;-76
2022/07/18 23:29:09;;;;;;;2.33;1.60;;;;;;;;;;12547588;28;20025;-75
2022/07/18 23:35:11;;;;;;;1.92;1.83;;;;;;;;;;12527330;28;20070;-80
2022/07/18 23:41:13;;;;;;;1.55;1.45;;;;;;;;;;12544255;28;20053;-80
2022/07/18 23:47:15;;;;;;;1.52;1.42;;;;;;;;;;12544345;28;20041;-79
2022/07/18 23:53:17;;;;;;;1.90;1.80;;;;;;;;;;12542955;28;20037;-76
2022/07/18 23:59:18;;;;;;;3.17;1.70;;;;;;;;;;12542657;28;20059;-75
